createdAt,value
2019-05-07T00:01:12.152Z,97572.03
2019-05-07T00:02:47.305Z,97565.27
2019-05-07T00:04:22.742Z,97571.45
2019-05-07T00:05:58.201Z,97566.42
2019-05-07T00:07:33.717Z,97570.11
2019-05-07T00:09:09.609Z,97562.77
2019-05-07T00:10:46.884Z,97568.17
2019-05-07T00:12:24.573Z,97569.13
2019-05-07T00:14:03.549Z,97571.84
2019-05-07T00:15:47.231Z,97561.59
2019-05-07T00:17:24.608Z,97568.17
2019-05-07T00:19:01.946Z,97556.95
2019-05-07T00:20:36.824Z,97562.17
2019-05-07T00:22:12.540Z,97565.84
2019-05-07T00:23:47.956Z,97571.26
2019-05-07T00:25:23.488Z,97567.77
2019-05-07T00:26:58.711Z,97567.19
2019-05-07T00:28:34.167Z,97570.29
2019-05-07T00:30:09.575Z,97567.38
2019-05-07T00:31:45.409Z,97567.98
2019-05-07T00:33:22.719Z,97565.86
2019-05-07T00:35:04.085Z,97565.09
2019-05-07T00:37:02.054Z,97564.50
2019-05-07T00:38:37.264Z,97559.88
2019-05-07T00:40:22.522Z,97570.70
2019-05-07T00:42:08.647Z,97566.43
2019-05-07T00:43:45.402Z,97564.91
2019-05-07T00:45:29.073Z,97568.38
2019-05-07T00:47:04.241Z,97569.74
2019-05-07T00:48:39.396Z,97561.03
2019-05-07T00:50:22.421Z,97565.48
2019-05-07T00:51:57.846Z,97568.78
2019-05-07T00:53:34.143Z,97562.22
2019-05-07T00:55:13.851Z,97561.03
2019-05-07T00:56:49.180Z,97559.28
2019-05-07T00:58:26.898Z,97555.42
2019-05-07T01:00:02.200Z,97552.34
2019-05-07T01:01:43.264Z,97558.52
2019-05-07T01:03:18.767Z,97559.88
2019-05-07T01:04:54.912Z,97560.85
2019-05-07T01:06:29.954Z,97553.30
2019-05-07T01:08:05.275Z,97556.20
2019-05-07T01:09:42.960Z,97554.86
2019-05-07T01:11:17.842Z,97552.14
2019-05-07T01:12:53.426Z,97545.57
2019-05-07T01:14:32.519Z,97538.03
2019-05-07T01:16:07.823Z,97535.32
2019-05-07T01:17:44.603Z,97536.67
2019-05-07T01:19:21.988Z,97526.25
2019-05-07T01:20:57.651Z,97529.73
2019-05-07T01:22:33.544Z,97524.30
2019-05-07T01:24:08.854Z,97524.68
2019-05-07T01:25:44.468Z,97519.45
2019-05-07T01:27:19.940Z,97518.88
2019-05-07T01:29:02.810Z,97510.56
2019-05-07T01:30:37.622Z,97510.74
2019-05-07T01:32:22.175Z,97510.36
2019-05-07T01:34:16.318Z,97509.59
2019-05-07T01:36:22.724Z,97502.44
2019-05-07T01:38:03.083Z,97503.59
2019-05-07T01:39:37.963Z,97498.98
2019-05-07T01:41:14.075Z,97493.55
2019-05-07T01:42:49.637Z,97491.42
2019-05-07T01:44:25.462Z,97486.78
2019-05-07T01:46:03.173Z,97480.05
2019-05-07T01:47:37.881Z,97481.39
2019-05-07T01:49:12.984Z,97477.53
2019-05-07T01:50:49.535Z,97475.78
2019-05-07T01:52:25.013Z,97470.95
2019-05-07T01:54:02.207Z,97472.69
2019-05-07T01:55:37.722Z,97464.58
2019-05-07T01:57:12.945Z,97459.34
2019-05-07T01:58:48.448Z,97454.31
2019-05-07T02:00:25.313Z,97448.33
2019-05-07T02:02:06.571Z,97440.80
2019-05-07T02:03:59.512Z,97440.98
2019-05-07T02:05:42.415Z,97431.70
2019-05-07T02:07:36.678Z,97427.64
2019-05-07T02:09:29.215Z,97426.67
2019-05-07T02:11:06.316Z,97423.60
2019-05-07T02:12:42.541Z,97417.03
2019-05-07T02:14:21.960Z,97412.38
2019-05-07T02:16:01.279Z,97404.25
2019-05-07T02:17:32.387Z,97402.52
2019-05-07T02:19:07.603Z,97402.70
2019-05-07T02:20:43.411Z,97392.85
2019-05-07T02:22:18.675Z,97398.28
2019-05-07T02:23:53.912Z,97392.88
2019-05-07T02:25:28.988Z,97390.55
2019-05-07T02:27:04.434Z,97385.52
2019-05-07T02:28:43.586Z,97382.63
2019-05-07T02:30:24.680Z,97386.48
2019-05-07T02:32:00.000Z,97377.03
2019-05-07T02:33:43.455Z,97375.86
2019-05-07T02:35:18.970Z,97377.98
2019-05-07T02:36:54.287Z,97366.38
2019-05-07T02:38:44.429Z,97365.99
2019-05-07T02:40:28.145Z,97368.51
2019-05-07T02:42:08.903Z,97370.24
2019-05-07T02:43:48.292Z,97359.23
2019-05-07T02:45:44.293Z,97356.54
2019-05-07T02:47:23.510Z,97363.86
2019-05-07T02:49:14.453Z,97359.05
2019-05-07T02:51:03.842Z,97362.71
2019-05-07T02:52:55.334Z,97361.36
2019-05-07T02:54:49.607Z,97361.75
2019-05-07T02:56:26.342Z,97365.23
2019-05-07T02:58:03.536Z,97362.52
2019-05-07T02:59:40.110Z,97366.77
2019-05-07T03:01:15.342Z,97363.86
2019-05-07T03:02:53.034Z,97361.34
2019-05-07T03:04:28.069Z,97362.51
2019-05-07T03:06:05.150Z,97360.38
2019-05-07T03:07:42.717Z,97361.73
2019-05-07T03:09:17.231Z,97357.28
2019-05-07T03:10:52.849Z,97366.75
2019-05-07T03:12:28.227Z,97368.50
2019-05-07T03:14:03.687Z,97363.88
2019-05-07T03:15:39.187Z,97366.00
2019-05-07T03:17:15.311Z,97370.05
2019-05-07T03:18:53.075Z,97369.86
2019-05-07T03:20:33.907Z,97365.41
2019-05-07T03:22:09.325Z,97365.99
2019-05-07T03:24:05.935Z,97363.10
2019-05-07T03:25:58.714Z,97366.58
2019-05-07T03:27:34.740Z,97365.22
2019-05-07T03:29:14.270Z,97363.29
2019-05-07T03:30:56.947Z,97359.81
2019-05-07T03:32:48.183Z,97370.63
2019-05-07T03:34:36.181Z,97370.23
2019-05-07T03:36:08.220Z,97371.39
2019-05-07T03:37:46.127Z,97368.89
2019-05-07T03:39:23.983Z,97369.66
2019-05-07T03:41:00.160Z,97367.33
2019-05-07T03:42:35.191Z,97369.67
2019-05-07T03:44:26.091Z,97370.63
2019-05-07T03:46:06.896Z,97375.47
2019-05-07T03:47:44.698Z,97372.95
2019-05-07T03:49:29.734Z,97379.90
2019-05-07T03:51:04.967Z,97377.58
2019-05-07T03:52:42.581Z,97376.03
2019-05-07T03:54:18.488Z,97378.72
2019-05-07T03:55:54.245Z,97382.98
2019-05-07T03:57:33.022Z,97381.81
2019-05-07T03:59:06.974Z,97384.11
2019-05-07T04:00:44.361Z,97378.33
2019-05-07T04:02:19.601Z,97388.18
2019-05-07T04:03:55.105Z,97385.70
2019-05-07T04:05:33.880Z,97391.67
2019-05-07T04:07:07.432Z,97386.27
2019-05-07T04:08:43.460Z,97388.41
2019-05-07T04:10:19.065Z,97391.47
2019-05-07T04:11:54.265Z,97387.81
2019-05-07T04:13:29.344Z,97393.61
2019-05-07T04:15:05.948Z,97387.81
2019-05-07T04:16:44.087Z,97383.77
2019-05-07T04:18:18.780Z,97389.16
2019-05-07T04:19:53.979Z,97398.23
2019-05-07T04:21:29.115Z,97392.45
2019-05-07T04:23:04.524Z,97396.13
2019-05-07T04:24:47.160Z,97396.89
2019-05-07T04:26:38.459Z,97401.91
2019-05-07T04:28:19.369Z,97404.42
2019-05-07T04:29:58.587Z,97404.24
2019-05-07T04:31:38.027Z,97397.09
2019-05-07T04:33:15.089Z,97403.08
2019-05-07T04:35:07.179Z,97406.00
2019-05-07T04:36:45.543Z,97406.56
2019-05-07T04:38:23.591Z,97413.91
2019-05-07T04:39:57.808Z,97418.57
2019-05-07T04:41:33.219Z,97418.17
2019-05-07T04:43:08.484Z,97416.64
2019-05-07T04:44:43.927Z,97420.52
2019-05-07T04:46:19.353Z,97418.56
2019-05-07T04:47:54.808Z,97421.28
2019-05-07T04:49:33.000Z,97417.59
2019-05-07T04:51:08.490Z,97414.32
2019-05-07T04:52:50.484Z,97415.64
2019-05-07T04:54:27.058Z,97417.78
2019-05-07T04:56:04.641Z,97420.27
2019-05-07T04:57:39.813Z,97410.61
2019-05-07T04:59:15.021Z,97410.58
2019-05-07T05:00:53.551Z,97402.27
2019-05-07T05:02:35.680Z,97402.66
2019-05-07T05:04:25.621Z,97407.49
2019-05-07T05:05:47.799Z,97401.66
2019-05-07T05:07:22.960Z,97396.20
2019-05-07T05:09:05.116Z,97393.64
2019-05-07T05:10:43.519Z,97390.11
2019-05-07T05:12:18.998Z,97384.09
2019-05-07T05:13:56.030Z,97373.40
2019-05-07T05:15:32.109Z,97367.05
2019-05-07T05:17:08.793Z,97357.95
2019-05-07T05:18:44.331Z,97346.52
2019-05-07T05:20:22.208Z,97340.53
2019-05-07T05:22:19.263Z,97332.73
2019-05-07T05:23:58.850Z,97321.24
2019-05-07T05:25:37.236Z,97297.95
2019-05-07T05:27:12.529Z,97295.36
2019-05-07T05:28:47.926Z,97277.73
2019-05-07T05:30:32.651Z,97260.28
2019-05-07T05:32:11.993Z,97253.81
2019-05-07T05:33:49.287Z,97240.24
2019-05-07T05:35:24.643Z,97226.76
2019-05-07T05:36:59.912Z,97219.34
2019-05-07T05:38:35.905Z,97207.42
2019-05-07T05:40:13.271Z,97195.75
2019-05-07T05:41:55.131Z,97196.19
2019-05-07T05:43:40.057Z,97186.48
2019-05-07T05:45:35.753Z,97178.52
2019-05-07T05:47:12.066Z,97161.12
2019-05-07T05:48:51.886Z,97152.46
2019-05-07T05:50:28.618Z,97143.05
2019-05-07T05:52:18.044Z,97137.94
2019-05-07T05:54:07.469Z,97128.27
2019-05-07T05:55:45.346Z,97110.98
2019-05-07T05:57:48.219Z,97104.20
2019-05-07T05:59:51.999Z,97111.02
2019-05-07T06:02:05.926Z,97100.68
2019-05-07T06:04:03.495Z,97097.30
2019-05-07T06:05:56.904Z,97087.06
2019-05-07T06:07:53.663Z,97081.67
2019-05-07T06:09:47.547Z,97076.73
2019-05-07T06:11:44.426Z,97073.34
2019-05-07T06:13:35.168Z,97061.98
2019-05-07T06:15:38.114Z,97058.16
2019-05-07T06:17:42.488Z,97048.67
2019-05-07T06:19:38.872Z,97049.80
2019-05-07T06:21:33.034Z,97052.36
2019-05-07T06:23:33.192Z,97046.62
2019-05-07T06:25:14.858Z,97043.34
2019-05-07T06:26:55.852Z,97039.79
2019-05-07T06:28:33.104Z,97042.02
2019-05-07T06:30:11.931Z,97040.57
2019-05-07T06:32:02.859Z,97042.02
2019-05-07T06:33:38.277Z,97040.10
2019-05-07T06:35:19.091Z,97043.73
2019-05-07T06:36:55.378Z,97038.97
2019-05-07T06:38:36.324Z,97030.53
2019-05-07T06:40:34.229Z,97038.52
2019-05-07T06:42:33.977Z,97030.84
2019-05-07T06:44:14.419Z,97032.12
2019-05-07T06:45:52.978Z,97032.44
2019-05-07T06:47:28.191Z,97036.83
2019-05-07T06:49:03.812Z,97024.92
2019-05-07T06:50:43.274Z,97031.16
2019-05-07T06:52:18.521Z,97033.17
2019-05-07T06:53:55.508Z,97030.69
2019-05-07T06:55:33.494Z,97029.50
2019-05-07T06:57:12.886Z,97028.83
2019-05-07T06:59:15.271Z,97028.78
2019-05-07T07:01:12.260Z,97026.67
2019-05-07T07:02:58.991Z,97035.66
2019-05-07T07:04:59.429Z,97032.15
2019-05-07T07:06:52.511Z,97034.81
2019-05-07T07:08:33.238Z,97030.28
2019-05-07T07:10:27.971Z,97032.74
2019-05-07T07:12:05.957Z,97027.95
2019-05-07T07:13:43.145Z,97025.98
2019-05-07T07:15:23.215Z,97033.41
2019-05-07T07:16:58.227Z,97026.04
2019-05-07T07:18:33.312Z,97023.91
2019-05-07T07:20:12.719Z,97012.00
2019-05-07T07:21:49.064Z,97018.16
2019-05-07T07:23:32.381Z,97016.78
2019-05-07T07:25:08.129Z,97015.20
2019-05-07T07:26:43.595Z,97006.36
2019-05-07T07:28:21.907Z,97010.63
2019-05-07T07:30:32.622Z,97015.37
2019-05-07T07:32:08.811Z,97003.55
2019-05-07T07:33:53.105Z,97003.03
2019-05-07T07:35:32.364Z,97002.26
2019-05-07T07:40:13.406Z,97011.38
2019-05-07T07:41:55.079Z,97005.51
2019-05-07T07:43:32.594Z,97006.81
2019-05-07T07:45:23.007Z,97011.38
2019-05-07T07:46:55.823Z,97008.51
2019-05-07T07:48:32.158Z,97010.98
2019-05-07T07:50:12.912Z,97005.91
2019-05-07T07:51:47.843Z,97006.56
2019-05-07T07:53:23.426Z,97008.19
2019-05-07T07:55:02.175Z,97006.73
2019-05-07T07:57:02.168Z,97008.84
2019-05-07T07:59:12.492Z,97013.03
2019-05-07T08:01:02.971Z,97010.30
2019-05-07T08:02:50.333Z,97007.67
2019-05-07T08:04:27.337Z,97003.85
2019-05-07T08:06:03.076Z,97009.82
2019-05-07T08:07:38.243Z,97010.75
2019-05-07T08:09:13.339Z,96997.65
2019-05-07T08:10:52.012Z,96999.17
2019-05-07T08:12:32.509Z,96998.02
2019-05-07T08:14:21.922Z,96999.05
2019-05-07T08:15:58.894Z,96997.22
2019-05-07T08:17:33.970Z,96996.53
2019-05-07T08:19:24.381Z,96999.36
2019-05-07T08:21:07.895Z,96998.21
2019-05-07T08:22:43.496Z,97000.34
2019-05-07T08:24:24.250Z,96999.63
2019-05-07T08:25:59.847Z,97005.26
2019-05-07T08:27:35.105Z,96999.09
2019-05-07T08:29:12.760Z,97002.11
2019-05-07T08:31:16.041Z,97002.28
2019-05-07T08:32:59.119Z,97003.84
2019-05-07T08:34:56.395Z,97004.55
2019-05-07T08:36:33.124Z,97001.45
2019-05-07T08:38:09.290Z,97002.97
2019-05-07T08:39:47.350Z,96996.79
2019-05-07T08:41:26.121Z,96998.93
2019-05-07T08:43:17.626Z,97000.03
2019-05-07T08:45:25.053Z,96989.89
2019-05-07T08:47:12.141Z,97002.62
2019-05-07T08:48:52.903Z,96995.98
2019-05-07T08:50:29.673Z,96995.89
2019-05-07T08:52:05.818Z,96992.44
2019-05-07T08:53:42.312Z,96994.12
2019-05-07T08:55:17.552Z,96995.59
2019-05-07T08:56:53.043Z,96991.96
2019-05-07T08:58:28.581Z,96986.27
2019-05-07T09:00:12.286Z,96994.56
2019-05-07T09:01:48.248Z,96990.91
2019-05-07T09:03:51.751Z,96989.03
2019-05-07T09:05:27.081Z,96987.91
2019-05-07T09:07:02.801Z,96990.44
2019-05-07T09:08:38.394Z,96986.68
2019-05-07T09:10:17.859Z,96990.99
2019-05-07T09:11:53.003Z,96993.48
2019-05-07T09:13:28.144Z,96991.45
2019-05-07T09:15:06.460Z,96997.68
2019-05-07T09:16:42.829Z,96993.84
2019-05-07T09:18:22.838Z,96990.56
2019-05-07T09:19:58.998Z,96990.05
2019-05-07T09:21:37.783Z,96985.58
2019-05-07T09:23:13.867Z,96993.46
2019-05-07T09:24:49.706Z,96989.33
2019-05-07T09:26:32.360Z,96984.34
2019-05-07T09:28:09.139Z,96976.83
2019-05-07T09:30:03.867Z,96980.76
2019-05-07T09:32:16.121Z,96982.78
2019-05-07T09:33:53.700Z,96981.62
2019-05-07T09:35:47.191Z,96971.91
2019-05-07T09:37:33.878Z,96972.52
2019-05-07T09:39:12.146Z,96959.84
2019-05-07T09:40:56.872Z,96961.66
2019-05-07T09:42:32.975Z,96959.70
2019-05-07T09:44:11.822Z,96960.78
2019-05-07T09:45:49.401Z,96956.51
2019-05-07T09:47:26.101Z,96957.87
2019-05-07T09:49:03.129Z,96951.73
2019-05-07T09:50:38.482Z,96950.58
2019-05-07T09:52:13.665Z,96948.14
2019-05-07T09:53:52.638Z,96947.81
2019-05-07T09:55:32.320Z,96944.47
2019-05-07T09:57:07.091Z,96937.77
2019-05-07T09:58:48.826Z,96939.88
2019-05-07T10:00:24.757Z,96947.04
2019-05-07T10:02:01.904Z,96941.99
2019-05-07T10:03:42.757Z,96942.32
2019-05-07T10:05:19.382Z,96942.98
2019-05-07T10:07:04.445Z,96949.96
2019-05-07T10:08:42.087Z,96939.46
2019-05-07T10:10:17.882Z,96944.29
2019-05-07T10:12:30.390Z,96946.72
2019-05-07T10:14:12.759Z,96942.77
2019-05-07T10:16:09.033Z,96937.33
2019-05-07T10:17:49.537Z,96944.25
2019-05-07T10:19:32.343Z,96934.02
2019-05-07T10:21:07.034Z,96931.16
2019-05-07T10:22:43.656Z,96932.49
2019-05-07T10:24:22.089Z,96934.66
2019-05-07T10:25:58.647Z,96932.94
2019-05-07T10:27:55.726Z,96933.72
2019-05-07T10:29:38.092Z,96928.34
2019-05-07T10:31:14.082Z,96927.42
2019-05-07T10:32:52.797Z,96931.30
2019-05-07T10:34:29.363Z,96926.38
2019-05-07T10:36:06.212Z,96928.45
2019-05-07T10:37:52.843Z,96927.36
2019-05-07T10:39:32.563Z,96930.96
2019-05-07T10:41:22.480Z,96932.48
2019-05-07T10:43:08.242Z,96939.33
2019-05-07T10:45:15.711Z,96938.02
2019-05-07T10:47:14.219Z,96942.32
2019-05-07T10:48:55.438Z,96945.80
2019-05-07T10:50:38.890Z,96941.00
2019-05-07T10:52:12.554Z,96940.50
2019-05-07T10:53:52.508Z,96942.38
2019-05-07T10:55:28.912Z,96939.78
2019-05-07T10:57:04.854Z,96936.09
2019-05-07T10:58:47.340Z,96941.65
2019-05-07T11:00:30.043Z,96942.77
2019-05-07T11:02:14.262Z,96934.93
2019-05-07T11:03:51.735Z,96938.44
2019-05-07T11:05:29.516Z,96935.72
2019-05-07T11:07:06.783Z,96935.12
2019-05-07T11:08:43.223Z,96929.40
2019-05-07T11:10:28.037Z,96930.93
2019-05-07T11:12:04.387Z,96922.02
2019-05-07T11:13:43.576Z,96926.73
2019-05-07T11:15:22.087Z,96924.22
2019-05-07T11:17:17.994Z,96920.09
2019-05-07T11:19:02.067Z,96921.03
2019-05-07T11:20:47.387Z,96919.86
2019-05-07T11:22:22.153Z,96917.06
2019-05-07T11:24:03.024Z,96918.78
2019-05-07T11:25:41.947Z,96916.00
2019-05-07T11:27:19.357Z,96917.70
2019-05-07T11:28:57.928Z,96911.83
2019-05-07T11:30:37.241Z,96914.75
2019-05-07T11:32:21.549Z,96908.53
2019-05-07T11:33:58.376Z,96914.06
2019-05-07T11:35:37.972Z,96913.63
2019-05-07T11:37:13.654Z,96910.62
2019-05-07T11:38:52.695Z,96907.06
2019-05-07T11:40:32.073Z,96909.09
2019-05-07T11:42:29.316Z,96909.97
2019-05-07T11:44:15.752Z,96897.77
2019-05-07T11:46:23.326Z,96897.23
2019-05-07T11:48:04.566Z,96896.67
2019-05-07T11:50:03.181Z,96896.14
2019-05-07T11:52:04.540Z,96897.17
2019-05-07T11:54:03.319Z,96898.17
2019-05-07T11:55:48.578Z,96904.41
2019-05-07T11:57:23.272Z,96898.86
2019-05-07T11:59:02.898Z,96908.31
2019-05-07T12:00:45.008Z,96896.53
2019-05-07T12:02:26.418Z,96895.66
2019-05-07T12:06:03.469Z,96891.25
2019-05-07T12:07:47.484Z,96886.55
2019-05-07T12:09:28.590Z,96888.43
2019-05-07T12:11:05.068Z,96888.77
2019-05-07T12:12:52.129Z,96884.25
2019-05-07T12:14:34.265Z,96882.48
2019-05-07T12:16:11.296Z,96885.66
2019-05-07T12:18:52.444Z,96873.09
2019-05-07T12:20:29.613Z,96875.63
2019-05-07T12:22:07.333Z,96875.87
2019-05-07T12:23:42.424Z,96869.97
2019-05-07T12:25:18.419Z,96870.48
2019-05-07T12:26:53.786Z,96873.38
2019-05-07T12:28:35.650Z,96872.76
2019-05-07T12:30:13.995Z,96869.41
2019-05-07T12:32:14.074Z,96866.45
2019-05-07T12:34:08.216Z,96868.51
2019-05-07T12:35:44.149Z,96865.59
2019-05-07T12:37:22.597Z,96866.03
2019-05-07T12:38:57.841Z,96871.94
2019-05-07T12:40:37.567Z,96873.14
2019-05-07T12:42:14.480Z,96863.89
2019-05-07T12:43:55.939Z,96869.85
2019-05-07T12:45:33.343Z,96868.63
2019-05-07T12:47:08.688Z,96867.20
2019-05-07T12:48:46.702Z,96869.05
2019-05-07T12:50:27.487Z,96870.58
2019-05-07T12:52:26.336Z,96862.66
2019-05-07T12:54:26.532Z,96858.75
2019-05-07T12:56:02.301Z,96860.09
2019-05-07T12:57:42.091Z,96856.45
2019-05-07T12:59:18.894Z,96855.25
2019-05-07T13:01:07.243Z,96852.25
2019-05-07T13:03:18.888Z,96852.34
2019-05-07T13:04:52.159Z,96850.19
2019-05-07T13:06:32.546Z,96846.00
2019-05-07T13:08:14.114Z,96839.06
2019-05-07T13:09:57.632Z,96847.94
2019-05-07T13:11:32.467Z,96842.86
2019-05-07T13:13:21.651Z,96849.52
2019-05-07T13:15:02.761Z,96852.38
2019-05-07T13:16:35.843Z,96845.44
2019-05-07T13:18:14.224Z,96845.17
2019-05-07T13:19:52.299Z,96844.41
2019-05-07T13:21:46.484Z,96842.03
2019-05-07T13:23:11.961Z,96834.73
2019-05-07T13:24:52.747Z,96839.03
2019-05-07T13:26:33.687Z,96836.43
2019-05-07T13:28:11.918Z,96833.88
2019-05-07T13:29:47.203Z,96822.87
2019-05-07T13:31:32.707Z,96829.36
2019-05-07T13:33:13.516Z,96823.57
2019-05-07T13:34:51.979Z,96815.67
2019-05-07T13:36:27.956Z,96818.98
2019-05-07T13:38:23.482Z,96824.66
2019-05-07T13:40:03.048Z,96822.59
2019-05-07T13:41:57.078Z,96816.99
2019-05-07T13:43:40.249Z,96812.58
2019-05-07T13:45:27.074Z,96814.00
2019-05-07T13:47:23.998Z,96821.11
2019-05-07T13:49:01.972Z,96809.69
2019-05-07T13:50:43.587Z,96809.97
2019-05-07T13:52:19.192Z,96805.15
2019-05-07T13:53:59.511Z,96808.98
2019-05-07T13:55:55.169Z,96808.30
2019-05-07T13:57:38.365Z,96805.52
2019-05-07T13:59:16.331Z,96804.31
2019-05-07T14:01:32.783Z,96802.17
2019-05-07T14:03:08.027Z,96796.66
2019-05-07T14:04:44.288Z,96796.00
2019-05-07T14:06:36.704Z,96794.89
2019-05-07T14:08:14.845Z,96801.06
2019-05-07T14:09:52.873Z,96792.92
2019-05-07T14:11:38.551Z,96793.81
2019-05-07T14:13:17.586Z,96791.90
2019-05-07T14:14:53.154Z,96789.28
2019-05-07T14:16:45.077Z,96789.97
2019-05-07T14:18:23.235Z,96791.53
2019-05-07T14:19:58.106Z,96785.78
2019-05-07T14:21:37.286Z,96784.84
2019-05-07T14:23:15.590Z,96779.45
2019-05-07T14:24:56.322Z,96785.13
2019-05-07T14:26:32.523Z,96778.42
2019-05-07T14:28:09.361Z,96778.64
2019-05-07T14:29:47.645Z,96773.62
2019-05-07T14:31:33.481Z,96770.24
2019-05-07T14:33:14.951Z,96769.14
2019-05-07T14:35:24.295Z,96765.19
2019-05-07T14:37:27.705Z,96764.34
2019-05-07T14:39:06.466Z,96759.37
2019-05-07T14:40:45.555Z,96763.89
2019-05-07T14:42:34.113Z,96757.54
2019-05-07T14:44:14.425Z,96748.68
2019-05-07T14:45:53.952Z,96754.49
2019-05-07T14:47:32.949Z,96757.97
2019-05-07T14:49:12.065Z,96762.67
2019-05-07T14:50:53.033Z,96761.63
2019-05-07T14:52:33.832Z,96759.33
2019-05-07T14:54:18.318Z,96760.10
2019-05-07T14:55:48.735Z,96752.63
2019-05-07T14:57:43.347Z,96754.00
2019-05-07T14:59:20.339Z,96755.41
2019-05-07T15:01:02.880Z,96749.75
2019-05-07T15:02:44.508Z,96747.22
2019-05-07T15:04:22.030Z,96749.48
2019-05-07T15:05:59.605Z,96738.73
2019-05-07T15:07:36.486Z,96734.34
2019-05-07T15:09:13.095Z,96737.20
2019-05-07T15:10:52.474Z,96739.72
2019-05-07T15:12:36.146Z,96730.97
2019-05-07T15:14:12.110Z,96727.95
2019-05-07T15:15:47.744Z,96722.50
2019-05-07T15:17:32.592Z,96722.35
2019-05-07T15:19:12.453Z,96728.28
2019-05-07T15:20:52.444Z,96722.19
2019-05-07T15:22:49.170Z,96726.14
2019-05-07T15:24:18.849Z,96726.30
2019-05-07T15:25:57.386Z,96727.22
2019-05-07T15:27:32.520Z,96724.37
2019-05-07T15:29:14.531Z,96720.72
2019-05-07T15:31:02.816Z,96728.03
2019-05-07T15:32:37.940Z,96726.09
2019-05-07T15:34:13.303Z,96729.43
2019-05-07T15:35:54.655Z,96728.38
2019-05-07T15:37:32.197Z,96726.52
2019-05-07T15:39:07.498Z,96726.77
2019-05-07T15:40:42.780Z,96729.02
2019-05-07T15:42:24.187Z,96725.81
2019-05-07T15:43:59.746Z,96723.92
2019-05-07T15:45:38.758Z,96718.03
2019-05-07T15:47:37.238Z,96719.66
2019-05-07T15:49:25.193Z,96713.94
2019-05-07T15:51:03.137Z,96714.66
2019-05-07T15:52:57.608Z,96712.81
2019-05-07T15:54:32.463Z,96716.16
2019-05-07T15:56:08.690Z,96714.22
2019-05-07T15:57:46.566Z,96708.37
2019-05-07T15:59:24.770Z,96701.94
2019-05-07T16:01:02.625Z,96707.77
2019-05-07T16:02:40.899Z,96701.84
2019-05-07T16:04:21.902Z,96702.03
2019-05-07T16:05:53.538Z,96702.30
2019-05-07T16:07:36.890Z,96696.97
2019-05-07T16:09:13.076Z,96696.59
2019-05-07T16:10:48.640Z,96698.54
2019-05-07T16:12:24.180Z,96697.56
2019-05-07T16:14:17.367Z,96693.17
2019-05-07T16:15:52.953Z,96689.25
2019-05-07T16:17:39.258Z,96693.34
2019-05-07T16:19:28.553Z,96694.02
2019-05-07T16:21:05.452Z,96694.00
2019-05-07T16:22:49.152Z,96680.47
2019-05-07T16:24:34.104Z,96687.01
2019-05-07T16:26:12.962Z,96682.28
2019-05-07T16:27:50.294Z,96684.73
2019-05-07T16:29:25.438Z,96680.61
2019-05-07T16:31:18.354Z,96680.78
2019-05-07T16:32:55.418Z,96678.34
2019-05-07T16:34:32.586Z,96669.97
2019-05-07T16:36:19.999Z,96675.45
2019-05-07T16:37:59.210Z,96671.48
2019-05-07T16:39:34.960Z,96670.73
2019-05-07T16:41:14.248Z,96672.82
2019-05-07T16:43:02.782Z,96666.35
2019-05-07T16:44:42.663Z,96665.91
2019-05-07T16:46:22.378Z,96666.20
2019-05-07T16:48:03.173Z,96664.95
2019-05-07T16:49:48.166Z,96662.53
2019-05-07T16:51:28.129Z,96646.89
2019-05-07T16:53:05.297Z,96652.97
2019-05-07T16:54:47.367Z,96650.08
2019-05-07T16:56:33.367Z,96653.34
2019-05-07T16:58:35.005Z,96649.91
2019-05-07T17:00:14.673Z,96652.67
2019-05-07T17:01:52.355Z,96657.32
2019-05-07T17:03:39.100Z,96658.97
2019-05-07T17:05:19.995Z,96656.17
2019-05-07T17:06:58.225Z,96653.79
2019-05-07T17:09:06.509Z,96653.79
2019-05-07T17:10:52.261Z,96658.33
2019-05-07T17:12:52.824Z,96653.50
2019-05-07T17:14:51.894Z,96655.51
2019-05-07T17:16:35.819Z,96653.22
2019-05-07T17:18:28.189Z,96652.67
2019-05-07T17:20:09.377Z,96650.26
2019-05-07T17:21:52.281Z,96647.60
2019-05-07T17:23:44.014Z,96648.84
2019-05-07T17:25:29.823Z,96644.71
2019-05-07T17:27:12.479Z,96644.39
2019-05-07T17:28:51.975Z,96644.55
2019-05-07T17:30:24.811Z,96636.84
2019-05-07T17:32:12.359Z,96636.23
2019-05-07T17:34:04.633Z,96650.27
2019-05-07T17:35:42.354Z,96642.66
2019-05-07T17:37:18.053Z,96647.10
2019-05-07T17:39:00.246Z,96648.64
2019-05-07T17:40:46.895Z,96642.56
2019-05-07T17:42:24.438Z,96641.35
2019-05-07T17:44:04.537Z,96638.30
2019-05-07T17:45:42.994Z,96646.52
2019-05-07T17:47:26.075Z,96641.16
2019-05-07T17:48:58.798Z,96634.98
2019-05-07T17:51:01.912Z,96642.89
2019-05-07T17:52:44.421Z,96640.08
2019-05-07T17:54:24.587Z,96637.22
2019-05-07T17:56:03.614Z,96634.42
2019-05-07T17:57:41.810Z,96637.19
2019-05-07T17:59:21.539Z,96637.88
2019-05-07T18:01:01.766Z,96634.09
2019-05-07T18:02:54.918Z,96634.94
2019-05-07T18:04:47.462Z,96635.73
2019-05-07T18:06:32.087Z,96634.84
2019-05-07T18:08:09.107Z,96634.25
2019-05-07T18:09:45.865Z,96631.11
2019-05-07T18:11:24.373Z,96634.60
2019-05-07T18:13:08.196Z,96630.02
2019-05-07T18:14:44.170Z,96627.84
2019-05-07T18:16:36.730Z,96627.56
2019-05-07T18:18:22.676Z,96632.84
2019-05-07T18:20:00.572Z,96626.07
2019-05-07T18:21:41.858Z,96629.30
2019-05-07T18:23:25.025Z,96626.41
2019-05-07T18:25:21.745Z,96628.97
2019-05-07T18:26:55.395Z,96627.97
2019-05-07T18:28:34.665Z,96631.35
2019-05-07T18:30:22.468Z,96628.02
2019-05-07T18:32:01.317Z,96627.23
2019-05-07T18:33:47.736Z,96621.39
2019-05-07T18:35:25.628Z,96620.28
2019-05-07T18:37:03.678Z,96620.66
2019-05-07T18:38:42.535Z,96620.36
2019-05-07T18:40:17.610Z,96616.62
2019-05-07T18:41:52.963Z,96618.33
2019-05-07T18:43:28.605Z,96619.20
2019-05-07T18:45:06.429Z,96615.11
2019-05-07T18:46:45.721Z,96614.28
2019-05-07T18:48:26.233Z,96616.21
2019-05-07T18:50:04.447Z,96617.02
2019-05-07T18:51:43.434Z,96617.19
2019-05-07T18:53:25.894Z,96613.26
2019-05-07T18:55:26.433Z,96615.95
2019-05-07T18:57:02.418Z,96620.88
2019-05-07T18:58:38.255Z,96628.69
2019-05-07T19:00:27.355Z,96627.38
2019-05-07T19:02:04.145Z,96619.64
2019-05-07T19:03:41.973Z,96620.33
2019-05-07T19:05:22.511Z,96616.08
2019-05-07T19:07:02.576Z,96615.69
2019-05-07T19:08:42.071Z,96617.73
2019-05-07T19:10:23.098Z,96614.22
2019-05-07T19:12:08.626Z,96616.17
2019-05-07T19:13:44.859Z,96613.70
2019-05-07T19:15:25.858Z,96609.45
2019-05-07T19:17:06.137Z,96612.13
2019-05-07T19:18:43.175Z,96611.02
2019-05-07T19:20:32.621Z,96612.59
2019-05-07T19:22:08.141Z,96611.82
2019-05-07T19:23:43.647Z,96623.13
2019-05-07T19:25:19.951Z,96620.75
2019-05-07T19:26:55.653Z,96616.16
2019-05-07T19:28:32.973Z,96619.41
2019-05-07T19:30:13.394Z,96617.69
2019-05-07T19:31:48.727Z,96613.04
2019-05-07T19:33:27.026Z,96616.19
2019-05-07T19:35:07.281Z,96615.84
2019-05-07T19:36:52.017Z,96613.83
2019-05-07T19:38:32.352Z,96625.05
2019-05-07T19:40:13.576Z,96624.28
2019-05-07T19:41:52.342Z,96620.28
2019-05-07T19:43:28.298Z,96616.30
2019-05-07T19:45:18.000Z,96614.42
2019-05-07T19:46:52.428Z,96612.66
2019-05-07T19:48:35.504Z,96618.52
2019-05-07T19:50:14.105Z,96619.53
2019-05-07T19:51:52.345Z,96624.03
2019-05-07T19:53:32.716Z,96622.61
2019-05-07T19:55:09.279Z,96615.95
2019-05-07T19:56:52.751Z,96614.00